1897 Hurricane NOT_NAMED (1897283N12298)


IBTrACS version v04r00. Visit IBTrACS website for data access.
Please direct all questions to the IBTrACS Q and A forum

Storm track - Intensity - Wind Radii - Intensity Data - Source Data - All data

Summary Information

Storm ID 1897283N12298
Start Oct 9 18Z
Landfall Oct 18 21Z
Max Intensity 70 kt (Oct 18 12Z)
End Oct 22 18Z
ATCF IDs AL051897
Track status Best track data.

Storm track plot

Map of storm track

Intensity plots

Map of storm track

Radial wind information

No radial wind information for this storm


Position and Intensity Table

BASIN ISO_TIME_________ NATURE LAT LON WMO WIND USA WIND MLC WIND
degrees north degrees east kts kts kts
NA 1897-10-09 18:00:00 TS 12.40 -61.70 40 40
NA 21:00:00 TS 12.44 -62.12 40
NA 1897-10-10 00:00:00 TS 12.50 -62.60 40 40
NA 03:00:00 TS 12.59 -63.19 40
NA 06:00:00 TS 12.70 -63.80 40 40
NA 09:00:00 TS 12.85 -64.35 40
NA 12:00:00 TS 13.00 -64.90 40 40
NA 15:00:00 TS 13.11 -65.50 40
NA 18:00:00 TS 13.20 -66.10 40 40
NA 21:00:00 TS 13.30 -66.65 40
NA 1897-10-11 00:00:00 TS 13.40 -67.20 40 40
NA 03:00:00 TS 13.50 -67.79 40
NA 06:00:00 TS 13.60 -68.40 40 40
NA 09:00:00 TS 13.70 -69.00 40
NA 12:00:00 TS 13.80 -69.60 40 40
NA 15:00:00 TS 13.91 -70.20 40
NA 18:00:00 TS 14.00 -70.80 40 40
NA 21:00:00 TS 14.06 -71.39 40
NA 1897-10-12 00:00:00 TS 14.10 -72.00 40 40
NA 03:00:00 TS 14.14 -72.65 40
NA 06:00:00 TS 14.20 -73.30 40 40
NA 09:00:00 TS 14.29 -73.90 40
NA 12:00:00 TS 14.40 -74.50 40 40
NA 15:00:00 TS 14.50 -75.14 40
NA 18:00:00 TS 14.60 -75.80 40 40
NA 21:00:00 TS 14.69 -76.45 40
NA 1897-10-13 00:00:00 TS 14.80 -77.10 40 40
NA 03:00:00 TS 14.93 -77.76 40
NA 06:00:00 TS 15.10 -78.40 40 40
NA 09:00:00 TS 15.28 -79.02 40
NA 12:00:00 TS 15.50 -79.60 40 40
NA 15:00:00 TS 15.76 -80.21 40
NA 18:00:00 TS 16.00 -80.70 40 40
NA 21:00:00 TS 16.16 -80.95 40
NA 1897-10-14 00:00:00 TS 16.30 -81.10 40 40
NA 03:00:00 TS 16.50 -81.35 40
NA 06:00:00 TS 16.70 -81.60 40 40
NA 09:00:00 TS 16.86 -81.82 40
NA 12:00:00 TS 17.00 -82.00 40 40 30
NA 15:00:00 TS 17.15 -82.16 40 30
NA 18:00:00 TS 17.30 -82.30 40 40 30
NA 21:00:00 TS 17.46 -82.46 40 30
NA 1897-10-15 00:00:00 TS 17.60 -82.60 40 40 30
NA 03:00:00 TS 17.71 -82.71 40 30
NA 06:00:00 TS 17.80 -82.80 40 40 30
NA 09:00:00 TS 17.89 -82.91 40 30
NA 12:00:00 TS 18.00 -83.00 40 40 30
NA 15:00:00 TS 18.16 -83.06 40 30
NA 18:00:00 TS 18.30 -83.10 40 40 30
NA 21:00:00 TS 18.36 -83.11 40 30
NA 1897-10-16 00:00:00 TS 18.40 -83.10 40 40 30
NA 03:00:00 TS 18.44 -83.11 40 30
NA 06:00:00 TS 18.50 -83.10 40 40 30
NA 09:00:00 TS 18.58 -83.06 40 30
NA 12:00:00 TS 18.70 -83.00 40 40 30
NA 15:00:00 TS 18.85 -82.92 40 30
NA 18:00:00 TS 19.00 -82.80 40 40 30
NA 21:00:00 TS 19.11 -82.65 40 32
NA 1897-10-17 00:00:00 TS 19.20 -82.50 40 40 35
NA 03:00:00 TS 19.29 -82.40 42 37
NA 06:00:00 TS 19.40 -82.30 45 45 40
NA 09:00:00 TS 19.55 -82.17 47 42
NA 12:00:00 TS 19.70 -82.00 50 50 45
NA 15:00:00 TS 19.81 -81.81 52 45
NA 18:00:00 TS 19.90 -81.60 55 55 45
NA 21:00:00 TS 20.00 -81.34 57 45
NA 1897-10-18 00:00:00 TS 20.10 -81.10 60 60 45
NA 03:00:00 TS 20.19 -80.95 62 45
NA 06:00:00 TS 20.30 -80.80 65 65 45
NA 09:00:00 TS 20.42 -80.58 67 45
NA 12:00:00 TS 20.60 -80.30 70 70 45
NA 15:00:00 TS 20.88 -79.97 70 45
NA 18:00:00 TS 21.20 -79.60 70 70 45
NA 21:00:00 TS 21.49 -79.25 70 42
NA 1897-10-19 00:00:00 TS 21.80 -78.90 70 70 40
NA 03:00:00 TS 22.14 -78.53 65 37
NA 06:00:00 TS 22.50 -78.20 60 60 35
NA 09:00:00 TS 22.80 -77.93 57 32
NA 12:00:00 TS 23.30 -77.70 55 55 30
NA 15:00:00 TS 24.20 -77.45 55 30
NA 18:00:00 TS 25.30 -77.20 55 55 30
NA 21:00:00 TS 26.38 -76.93 55 32
NA 1897-10-20 00:00:00 TS 27.50 -76.70 55 55 35
NA 03:00:00 TS 28.63 -76.58 55 37
NA 06:00:00 TS 29.80 -76.50 55 55 40
NA 09:00:00 TS 30.99 -76.42 55 42
NA 12:00:00 TS 32.20 -76.30 55 55 45
NA 15:00:00 TS 33.44 -76.12 55 45
NA 18:00:00 TS 34.60 -75.80 55 55 45
NA 20:00:00 TS 35.30 -75.49 55 55 45
NA 21:00:00 TS 35.75 -75.28 53 45
NA 1897-10-21 00:00:00 TS 37.20 -74.40 50 50 45
NA 03:00:00 TS 38.16 -73.26 47 45
NA 06:00:00 TS 38.80 -71.90 45 45 45
NA 09:00:00 TS 39.34 -70.46 42 45
NA 12:00:00 ET 39.70 -69.00 40 40 45
NA 15:00:00 ET 39.98 -67.60 40 45
NA 18:00:00 ET 40.10 -66.30 40 40 45
NA 21:00:00 ET 40.04 -65.10 40 45
NA 1897-10-22 00:00:00 ET 39.90 -64.00 40 40 45
NA 03:00:00 ET 39.82 -62.96 40 45
NA 06:00:00 ET 39.80 -61.90 40 40 45
NA 09:00:00 ET 39.89 -60.70 40 45
NA 12:00:00 ET 40.00 -59.50 40 40 45
NA 15:00:00 ET 40.07 -58.41 40 45
NA 18:00:00 ET 40.10 -57.40 40 40 45

Source Information

Agency Information
USA hurdat2-1851-2019-042820.txt:Line=8781:UNNAMED
TOKYO
CMA
HKO
NEWDELHI
REUNION
BOM
NADI
WELLINGTON
DS824
TD9636
TD9635
NEUMANN
MLC

All available IBTrACS Data

SEASON BASIN SUBBASIN ISO_TIME_________ NATURE LAT LON WMO WIND WMO AGENCY DIST2LAND LANDFALL IFLAG USA AGENCY USA ATCF_ID USA LAT USA LON USA RECORD USA STATUS USA WIND USA SSHS MLC LAT MLC LON MLC CLASS MLC WIND STORM SPEED STORM DIR
Year degrees north degrees east kts km km degrees north degrees east kts 1 degrees north degrees east kts kts degrees
1897 NA CS 1897-10-09 18:00:00 TS 12.40 -61.70 40 hurdat_atl 190 190 O_____________ hurdat_atl AL051897 12.40 -61.70 TS 40 0 8 276
1897 NA CS 21:00:00 TS 12.44 -62.12 190 190 P_____________ AL051897 12.44 -62.12 TS 40 0 9 276
1897 NA CS 1897-10-10 00:00:00 TS 12.50 -62.60 40 hurdat_atl 201 201 O_____________ hurdat_atl AL051897 12.50 -62.60 TS 40 0 11 278
1897 NA CS 03:00:00 TS 12.59 -63.19 213 213 P_____________ AL051897 12.59 -63.19 TS 40 0 12 280
1897 NA CS 06:00:00 TS 12.70 -63.80 40 hurdat_atl 235 235 O_____________ hurdat_atl AL051897 12.70 -63.80 TS 40 0 12 283
1897 NA CS 09:00:00 TS 12.85 -64.35 246 246 P_____________ AL051897 12.85 -64.35 TS 40 0 11 286
1897 NA CS 12:00:00 TS 13.00 -64.90 40 hurdat_atl 279 279 O_____________ hurdat_atl AL051897 13.00 -64.90 TS 40 0 12 283
1897 NA CS 15:00:00 TS 13.11 -65.50 285 280 P_____________ AL051897 13.11 -65.50 TS 40 0 12 280
1897 NA CS 18:00:00 TS 13.20 -66.10 40 hurdat_atl 291 291 O_____________ hurdat_atl AL051897 13.20 -66.10 TS 40 0 11 280
1897 NA CS 21:00:00 TS 13.30 -66.65 299 278 P_____________ AL051897 13.30 -66.65 TS 40 0 11 281
1897 NA CS 1897-10-11 00:00:00 TS 13.40 -67.20 40 hurdat_atl 278 259 O_____________ hurdat_atl AL051897 13.40 -67.20 TS 40 0 11 280
1897 NA CS 03:00:00 TS 13.50 -67.79 259 233 P_____________ AL051897 13.50 -67.79 TS 40 0 12 280
1897 NA CS 06:00:00 TS 13.60 -68.40 40 hurdat_atl 233 204 O_____________ hurdat_atl AL051897 13.60 -68.40 TS 40 0 12 280
1897 NA CS 09:00:00 TS 13.70 -69.00 204 190 P_____________ AL051897 13.70 -69.00 TS 40 0 12 280
1897 NA CS 12:00:00 TS 13.80 -69.60 40 hurdat_atl 193 190 O_____________ hurdat_atl AL051897 13.80 -69.60 TS 40 0 12 280
1897 NA CS 15:00:00 TS 13.91 -70.20 201 194 P_____________ AL051897 13.91 -70.20 TS 40 0 12 280
1897 NA CS 18:00:00 TS 14.00 -70.80 40 hurdat_atl 194 180 O_____________ hurdat_atl AL051897 14.00 -70.80 TS 40 0 12 277
1897 NA CS 21:00:00 TS 14.06 -71.39 190 190 P_____________ AL051897 14.06 -71.39 TS 40 0 12 275
1897 NA CS 1897-10-12 00:00:00 TS 14.10 -72.00 40 hurdat_atl 193 193 O_____________ hurdat_atl AL051897 14.10 -72.00 TS 40 0 12 274
1897 NA CS 03:00:00 TS 14.14 -72.65 215 215 P_____________ AL051897 14.14 -72.65 TS 40 0 13 275
1897 NA CS 06:00:00 TS 14.20 -73.30 40 hurdat_atl 253 253 O_____________ hurdat_atl AL051897 14.20 -73.30 TS 40 0 12 277
1897 NA CS 09:00:00 TS 14.29 -73.90 298 298 P_____________ AL051897 14.29 -73.90 TS 40 0 12 280
1897 NA CS 12:00:00 TS 14.40 -74.50 40 hurdat_atl 350 350 O_____________ hurdat_atl AL051897 14.40 -74.50 TS 40 0 12 280
1897 NA CS 15:00:00 TS 14.50 -75.14 382 371 P_____________ AL051897 14.50 -75.14 TS 40 0 13 279
1897 NA CS 18:00:00 TS 14.60 -75.80 40 hurdat_atl 371 346 O_____________ hurdat_atl AL051897 14.60 -75.80 TS 40 0 13 279
1897 NA CS 21:00:00 TS 14.69 -76.45 343 324 P_____________ AL051897 14.69 -76.45 TS 40 0 13 279
1897 NA CS 1897-10-13 00:00:00 TS 14.80 -77.10 40 hurdat_atl 324 314 O_____________ hurdat_atl AL051897 14.80 -77.10 TS 40 0 13 281
1897 NA CS 03:00:00 TS 14.93 -77.76 319 308 P_____________ AL051897 14.93 -77.76 TS 40 0 13 283
1897 NA CS 06:00:00 TS 15.10 -78.40 40 hurdat_atl 317 317 O_____________ hurdat_atl AL051897 15.10 -78.40 TS 40 0 13 286
1897 NA CS 09:00:00 TS 15.28 -79.02 322 322 P_____________ AL051897 15.28 -79.02 TS 40 0 12 289
1897 NA CS 12:00:00 TS 15.50 -79.60 40 hurdat_atl 328 320 O_____________ hurdat_atl AL051897 15.50 -79.60 TS 40 0 12 292
1897 NA CS 15:00:00 TS 15.76 -80.21 323 280 P_____________ AL051897 15.76 -80.21 TS 40 0 12 295
1897 NA CS 18:00:00 TS 16.00 -80.70 40 hurdat_atl 280 265 O_____________ hurdat_atl AL051897 16.00 -80.70 TS 40 0 8 299
1897 NA CS 21:00:00 TS 16.16 -80.95 271 258 P_____________ AL051897 16.16 -80.95 TS 40 0 5 308
1897 NA CS 1897-10-14 00:00:00 TS 16.30 -81.10 40 hurdat_atl 258 248 O_____________ hurdat_atl AL051897 16.30 -81.10 TS 40 0 5 311
1897 NA CS 03:00:00 TS 16.50 -81.35 255 247 P_____________ AL051897 16.50 -81.35 TS 40 0 6 310
1897 NA CS 06:00:00 TS 16.70 -81.60 40 hurdat_atl 248 239 O_____________ hurdat_atl AL051897 16.70 -81.60 TS 40 0 6 309
1897 NA CS 09:00:00 TS 16.86 -81.82 247 240 P_____________ AL051897 16.86 -81.82 TS 40 0 5 308
1897 NA CS 12:00:00 TS 17.00 -82.00 40 hurdat_atl 242 235 O____________O hurdat_atl AL051897 17.00 -82.00 TS 40 0 17.00 -82.00 TD 30 4 312
1897 NA CS 15:00:00 TS 17.15 -82.16 238 238 P____________P AL051897 17.15 -82.16 TS 40 0 17.15 -82.15 TD 30 4 317
1897 NA CS 18:00:00 TS 17.30 -82.30 40 hurdat_atl 252 252 O____________O hurdat_atl AL051897 17.30 -82.30 TS 40 0 17.30 -82.30 TD 30 4 317
1897 NA CS 21:00:00 TS 17.46 -82.46 264 264 P____________P AL051897 17.46 -82.46 TS 40 0 17.46 -82.46 TD 30 4 317
1897 NA CS 1897-10-15 00:00:00 TS 17.60 -82.60 40 hurdat_atl 269 269 O____________O hurdat_atl AL051897 17.60 -82.60 TS 40 0 17.60 -82.60 TD 30 3 316
1897 NA CS 03:00:00 TS 17.71 -82.71 272 272 P____________P AL051897 17.71 -82.71 TS 40 0 17.71 -82.71 TD 30 3 316
1897 NA CS 06:00:00 TS 17.80 -82.80 40 hurdat_atl 274 268 O____________O hurdat_atl AL051897 17.80 -82.80 TS 40 0 17.80 -82.80 TD 30 3 314
1897 NA CS 09:00:00 TS 17.89 -82.91 278 272 P____________P AL051897 17.89 -82.91 TS 40 0 17.89 -82.91 TD 30 3 316
1897 NA CS 12:00:00 TS 18.00 -83.00 40 hurdat_atl 282 282 O____________O hurdat_atl AL051897 18.00 -83.00 TS 40 0 18.00 -83.00 TD 30 3 331
1897 NA CS 15:00:00 TS 18.16 -83.06 297 297 P____________P AL051897 18.16 -83.06 TS 40 0 18.16 -83.06 TD 30 3 343
1897 NA CS 18:00:00 TS 18.30 -83.10 40 hurdat_atl 307 307 O____________O hurdat_atl AL051897 18.30 -83.10 TS 40 0 18.30 -83.10 TD 30 2 347
1897 NA CS 21:00:00 TS 18.36 -83.11 317 317 P____________P AL051897 18.36 -83.11 TS 40 0 18.36 -83.11 TD 30 1 0
1897 NA CS 1897-10-16 00:00:00 TS 18.40 -83.10 40 hurdat_atl 317 317 O____________O hurdat_atl AL051897 18.40 -83.10 TS 40 0 18.40 -83.10 TD 30 1 12
1897 NA CS 03:00:00 TS 18.44 -83.11 317 317 P____________P AL051897 18.44 -83.11 TS 40 0 18.44 -83.11 TD 30 1 0
1897 NA CS 06:00:00 TS 18.50 -83.10 40 hurdat_atl 325 314 O____________O hurdat_atl AL051897 18.50 -83.10 TS 40 0 18.50 -83.10 TD 30 1 16
1897 NA CS 09:00:00 TS 18.58 -83.06 314 302 P____________P AL051897 18.58 -83.06 TS 40 0 18.58 -83.06 TD 30 2 27
1897 NA CS 12:00:00 TS 18.70 -83.00 40 hurdat_atl 302 290 O____________O hurdat_atl AL051897 18.70 -83.00 TS 40 0 18.70 -83.00 TD 30 3 28
1897 NA CS 15:00:00 TS 18.85 -82.92 290 268 P____________P AL051897 18.85 -82.92 TS 40 0 18.85 -82.92 TD 30 4 32
1897 NA CS 18:00:00 TS 19.00 -82.80 40 hurdat_atl 268 257 O____________O hurdat_atl AL051897 19.00 -82.80 TS 40 0 19.00 -82.80 TD 30 4 44
1897 NA CS 21:00:00 TS 19.11 -82.65 258 246 P____________P AL051897 19.11 -82.65 TS 40 0 19.11 -82.65 TD 32 3 55
1897 NA CS 1897-10-17 00:00:00 TS 19.20 -82.50 40 hurdat_atl 248 238 O____________O hurdat_atl AL051897 19.20 -82.50 TS 40 0 19.20 -82.50 TS 35 3 52
1897 NA CS 03:00:00 TS 19.29 -82.40 238 229 P____________P AL051897 19.29 -82.40 TS 42 0 19.29 -82.40 TS 37 3 44
1897 NA CS 06:00:00 TS 19.40 -82.30 45 hurdat_atl 229 218 O____________O hurdat_atl AL051897 19.40 -82.30 TS 45 0 19.40 -82.30 TS 40 3 40
1897 NA CS 09:00:00 TS 19.55 -82.17 221 203 P____________P AL051897 19.55 -82.17 TS 47 0 19.55 -82.17 TS 42 4 43
1897 NA CS 12:00:00 TS 19.70 -82.00 50 hurdat_atl 207 201 O____________O hurdat_atl AL051897 19.70 -82.00 TS 50 0 19.70 -82.00 TS 45 4 52
1897 NA CS 15:00:00 TS 19.81 -81.81 206 203 P____________P AL051897 19.81 -81.81 TS 52 0 19.81 -81.81 TS 45 4 62
1897 NA CS 18:00:00 TS 19.90 -81.60 55 hurdat_atl 209 206 O____________O hurdat_atl AL051897 19.90 -81.60 TS 55 0 19.90 -81.60 TS 45 5 67
1897 NA CS 21:00:00 TS 20.00 -81.34 218 212 P____________P AL051897 20.00 -81.34 TS 57 0 20.00 -81.34 TS 45 5 67
1897 NA CS 1897-10-18 00:00:00 TS 20.10 -81.10 60 hurdat_atl 212 197 O____________O hurdat_atl AL051897 20.10 -81.10 TS 60 0 20.10 -81.10 TS 45 4 63
1897 NA CS 03:00:00 TS 20.19 -80.95 192 177 P____________P AL051897 20.19 -80.95 TS 62 0 20.19 -80.95 TS 45 3 55
1897 NA CS 06:00:00 TS 20.30 -80.80 65 hurdat_atl 177 158 O____________O hurdat_atl AL051897 20.30 -80.80 HU 65 1 20.30 -80.80 TS 45 4 57
1897 NA CS 09:00:00 TS 20.42 -80.58 158 126 P____________P AL051897 20.42 -80.58 HU 67 1 20.42 -80.58 TS 45 6 57
1897 NA CS 12:00:00 TS 20.60 -80.30 70 hurdat_atl 126 89 O____________O hurdat_atl AL051897 20.60 -80.30 HU 70 1 20.60 -80.30 TS 45 7 52
1897 NA CS 15:00:00 TS 20.88 -79.97 89 45 P____________P AL051897 20.88 -79.97 HU 70 1 20.88 -79.97 TS 45 9 47
1897 NA CS 18:00:00 TS 21.20 -79.60 70 hurdat_atl 45 10 O____________O hurdat_atl AL051897 21.20 -79.60 HU 70 1 21.20 -79.60 TS 45 9 47
1897 NA CS 21:00:00 TS 21.49 -79.25 0 0 P____________P AL051897 21.49 -79.25 HU 70 1 21.49 -79.25 TS 42 9 47
1897 NA NA 1897-10-19 00:00:00 TS 21.80 -78.90 70 hurdat_atl 0 0 O____________O hurdat_atl AL051897 21.80 -78.90 HU 70 1 21.80 -78.90 TS 40 9 46
1897 NA NA 03:00:00 TS 22.14 -78.53 0 0 P____________P AL051897 22.14 -78.53 HU 65 1 22.14 -78.53 TS 37 10 43
1897 NA NA 06:00:00 TS 22.50 -78.20 60 hurdat_atl 30 30 O____________O hurdat_atl AL051897 22.50 -78.20 TS 60 0 22.50 -78.20 TS 35 9 40
1897 NA NA 09:00:00 TS 22.80 -77.93 75 75 P____________P AL051897 22.80 -77.93 TS 57 0 22.80 -77.93 TS 32 9 30
1897 NA NA 12:00:00 TS 23.30 -77.70 55 hurdat_atl 105 46 O____________O hurdat_atl AL051897 23.30 -77.70 TS 55 0 23.30 -77.70 TD 30 15 18
1897 NA NA 15:00:00 TS 24.20 -77.45 45 30 P____________P AL051897 24.20 -77.45 TS 55 0 24.20 -77.45 TD 30 21 13
1897 NA NA 18:00:00 TS 25.30 -77.20 55 hurdat_atl 83 83 O____________O hurdat_atl AL051897 25.30 -77.20 TS 55 0 25.30 -77.20 TD 30 22 12
1897 NA NA 21:00:00 TS 26.38 -76.93 182 182 P____________P AL051897 26.38 -76.93 TS 55 0 26.38 -76.93 TD 32 23 12
1897 NA NA 1897-10-20 00:00:00 TS 27.50 -76.70 55 hurdat_atl 297 297 O____________O hurdat_atl AL051897 27.50 -76.70 TS 55 0 27.50 -76.70 TS 35 23 8
1897 NA NA 03:00:00 TS 28.63 -76.58 380 380 P____________P AL051897 28.63 -76.58 TS 55 0 28.63 -76.58 TS 37 23 4
1897 NA NA 06:00:00 TS 29.80 -76.50 55 hurdat_atl 414 366 O____________O hurdat_atl AL051897 29.80 -76.50 TS 55 0 29.80 -76.50 TS 40 24 3
1897 NA NA 09:00:00 TS 30.99 -76.42 356 255 P____________P AL051897 30.99 -76.42 TS 55 0 30.99 -76.42 TS 42 24 4
1897 NA NA 12:00:00 TS 32.20 -76.30 55 hurdat_atl 246 149 O____________O hurdat_atl AL051897 32.20 -76.30 TS 55 0 32.20 -76.30 TS 45 25 6
1897 NA NA 15:00:00 TS 33.44 -76.12 149 63 P____________P AL051897 33.47 -76.12 TS 55 0 33.38 -76.14 TS 45 24 10
1897 NA NA 18:00:00 TS 34.60 -75.80 55 hurdat_atl 56 38 O____________O hurdat_atl AL051897 34.60 -75.80 TS 55 0 34.60 -75.80 TS 45 23 16
1897 NA NA 20:00:00 TS 35.30 -75.49 55 hurdat_atl 38 21 O____________P hurdat_atl AL051897 35.20 -75.50 L TS 55 0 35.50 -75.46 TS 45 25 20
1897 NA NA 21:00:00 TS 35.75 -75.28 21 21 P____________P AL051897 35.64 -75.29 TS 53 0 35.96 -75.25 TS 45 31 25
1897 NA NA 1897-10-21 00:00:00 TS 37.20 -74.40 50 hurdat_atl 117 117 O____________O hurdat_atl AL051897 37.20 -74.40 TS 50 0 37.20 -74.40 TS 45 29 34
1897 NA NA 03:00:00 TS 38.16 -73.26 157 157 P____________P AL051897 38.18 -73.25 TS 47 0 38.13 -73.26 TS 45 25 51
1897 NA NA 06:00:00 TS 38.80 -71.90 45 hurdat_atl 220 219 O____________O hurdat_atl AL051897 38.80 -71.90 TS 45 0 38.80 -71.90 TS 45 25 62
1897 NA NA 09:00:00 TS 39.34 -70.46 244 228 P____________P AL051897 39.34 -70.46 TS 42 0 39.34 -70.46 TS 45 24 68
1897 NA NA 12:00:00 ET 39.70 -69.00 40 hurdat_atl 237 234 O____________O hurdat_atl AL051897 39.70 -69.00 EX 40 -4 39.70 -69.00 EX 45 23 74
1897 NA NA 15:00:00 ET 39.98 -67.60 276 276 P____________P AL051897 39.98 -67.60 EX 40 -4 39.98 -67.60 EX 45 21 79
1897 NA NA 18:00:00 ET 40.10 -66.30 40 hurdat_atl 357 357 O____________O hurdat_atl AL051897 40.10 -66.30 EX 40 -4 40.10 -66.30 EX 45 19 88
1897 NA NA 21:00:00 ET 40.04 -65.10 389 389 P____________P AL051897 40.04 -65.10 EX 40 -4 40.04 -65.10 EX 45 18 96
1897 NA NA 1897-10-22 00:00:00 ET 39.90 -64.00 40 hurdat_atl 414 414 O____________O hurdat_atl AL051897 39.90 -64.00 EX 40 -4 39.90 -64.00 EX 45 17 98
1897 NA NA 03:00:00 ET 39.82 -62.96 453 453 P____________P AL051897 39.82 -62.96 EX 40 -4 39.82 -62.96 EX 45 16 94
1897 NA NA 06:00:00 ET 39.80 -61.90 40 hurdat_atl 498 498 O____________O hurdat_atl AL051897 39.80 -61.90 EX 40 -4 39.80 -61.90 EX 45 17 88
1897 NA NA 09:00:00 ET 39.89 -60.70 550 550 P____________P AL051897 39.89 -60.70 EX 40 -4 39.89 -60.70 EX 45 18 84
1897 NA NA 12:00:00 ET 40.00 -59.50 40 hurdat_atl 587 587 O____________O hurdat_atl AL051897 40.00 -59.50 EX 40 -4 40.00 -59.50 EX 45 18 84
1897 NA NA 15:00:00 ET 40.07 -58.41 608 608 P____________P AL051897 40.07 -58.41 EX 40 -4 40.07 -58.41 EX 45 16 86
1897 NA NA 18:00:00 ET 40.10 -57.40 40 hurdat_atl 642 O____________O hurdat_atl AL051897 40.10 -57.40 EX 40 -4 40.10 -57.40 EX 45 15 88